Time;durP1;ratioP1;P1;durP2;ratioP2;P2;SDS_P1;SDS_P2;PMS_P1;PMS_P2;Temp;Humidity;BMP_temperature;BMP_pressure;BME280_temperature;BME280_humidity;BME280_pressure;Samples;Min_cycle;Max_cycle;Signal;HPM_P1;HPM_P2
2024/01/19 00:13:03;;;;;;;18.30;9.40;;;;;;;-2.14;76.37;99372.38;31621300;28;20048;-62
2024/01/19 00:28:04;;;;;;;21.85;10.63;;;;;;;-1.96;76.17;99385.06;31619835;28;20044;-62
2024/01/19 00:43:04;;;;;;;17.92;9.98;;;;;;;-1.87;76.17;99403.50;31618560;28;20037;-61
2024/01/19 00:58:04;;;;;;;17.20;9.05;;;;;;;-1.83;75.91;99406.75;31617034;28;42532;-61
2024/01/19 01:13:05;;;;;;;14.20;8.63;;;;;;;-1.86;75.80;99422.59;31628989;28;20071;-62
2024/01/19 01:28:06;;;;;;;17.05;8.60;;;;;;;-1.97;75.43;99448.66;31636199;28;40820;-63
2024/01/19 01:43:06;;;;;;;22.05;9.63;;;;;;;-2.16;75.62;99465.59;31634024;28;20118;-61
2024/01/19 01:58:08;;;;;;;23.38;10.73;;;;;;;-2.45;75.72;99471.03;31634526;28;19920;-62
2024/01/19 02:13:09;;;;;;;27.08;10.82;;;;;;;-2.50;76.53;99499.22;31632819;28;20036;-62
2024/01/19 02:28:10;;;;;;;16.90;9.15;;;;;;;-2.56;75.79;99526.56;31631366;28;20041;-62
2024/01/19 02:43:10;;;;;;;13.60;7.05;;;;;;;-2.79;75.87;99550.69;31629842;28;20040;-63
2024/01/19 02:58:11;;;;;;;10.15;4.97;;;;;;;-2.85;76.04;99603.25;31628052;28;34235;-62
2024/01/19 03:13:11;;;;;;;13.52;5.63;;;;;;;-3.24;75.26;99626.50;31626483;28;23533;-67
2024/01/19 03:28:11;;;;;;;9.05;5.47;;;;;;;-3.55;75.08;99623.22;31623878;28;40545;-64
2024/01/19 03:43:11;;;;;;;13.80;6.25;;;;;;;-3.79;75.13;99669.78;31623965;28;20387;-63
2024/01/19 03:58:12;;;;;;;12.02;6.05;;;;;;;-3.75;75.56;99686.88;31621206;28;43068;-62
2024/01/19 04:13:12;;;;;;;9.88;5.93;;;;;;;-4.11;75.66;99695.94;31619059;28;41609;-65
2024/01/19 04:28:12;;;;;;;15.15;7.43;;;;;;;-4.42;75.26;99692.47;31619693;28;26246;-65
2024/01/19 04:43:13;;;;;;;10.85;6.68;;;;;;;-4.65;75.16;99706.75;31615928;28;32434;-65
2024/01/19 04:58:13;;;;;;;10.75;6.95;;;;;;;-4.78;74.98;99736.03;31612526;28;43111;-65
2024/01/19 05:13:13;;;;;;;12.32;6.47;;;;;;;-5.08;75.17;99756.72;31611732;28;41465;-62
2024/01/19 05:28:14;;;;;;;19.38;11.65;;;;;;;-5.50;75.23;99764.03;31610807;28;42845;-61
2024/01/19 05:43:14;;;;;;;15.95;7.93;;;;;;;-5.81;76.02;99786.38;31609458;28;20040;-63
2024/01/19 05:58:15;;;;;;;11.80;7.05;;;;;;;-5.89;75.62;99811.84;31618011;28;41502;-63
2024/01/19 06:13:15;;;;;;;10.35;6.43;;;;;;;-5.78;76.02;99826.88;31628130;28;42955;-63
2024/01/19 06:28:15;;;;;;;13.00;6.88;;;;;;;-5.74;75.97;99843.13;31627409;28;41697;-64
2024/01/19 06:43:16;;;;;;;18.77;7.82;;;;;;;-5.73;76.16;99858.63;31621836;28;42684;-62
2024/01/19 06:58:16;;;;;;;13.13;7.68;;;;;;;-5.76;75.33;99865.72;31624676;28;20041;-64
2024/01/19 07:13:16;;;;;;;14.60;9.13;;;;;;;-5.59;75.72;99870.09;31623121;28;20057;-62
2024/01/19 07:28:17;;;;;;;18.90;10.05;;;;;;;-5.25;76.01;99884.81;31620570;28;41386;-63
2024/01/19 07:43:17;;;;;;;19.65;10.90;;;;;;;-4.88;75.18;99895.13;31619192;28;20044;-64
2024/01/19 07:58:17;;;;;;;18.08;10.02;;;;;;;-4.65;74.84;99909.50;31618336;28;20037;-67
2024/01/19 08:13:18;;;;;;;23.33;13.02;;;;;;;-4.20;74.44;99915.78;31617280;28;31307;-61
2024/01/19 08:28:18;;;;;;;14.70;8.43;;;;;;;-3.32;74.51;99916.16;31613357;28;43147;-62
2024/01/19 08:43:18;;;;;;;13.23;8.02;;;;;;;-2.44;73.05;99931.81;31612663;28;33289;-62
2024/01/19 08:58:18;;;;;;;17.25;7.13;;;;;;;-1.80;72.37;99954.88;31611502;28;42829;-63
2024/01/19 09:13:19;;;;;;;12.57;6.38;;;;;;;-1.71;71.29;99977.81;31610758;28;41627;-65
2024/01/19 09:28:19;;;;;;;12.57;5.55;;;;;;;-1.07;70.52;100024.25;31612226;28;37796;-62
2024/01/19 09:43:21;;;;;;;15.65;9.05;;;;;;;-0.04;69.64;100040.09;31630394;28;20044;-66
2024/01/19 09:58:22;;;;;;;14.02;8.63;;;;;;;1.46;68.43;100062.66;31631161;28;20025;-64
2024/01/19 10:13:22;;;;;;;16.05;8.88;;;;;;;11.28;60.97;100051.00;31581496;28;96654;-66
2024/01/19 10:28:31;;;;;;;12.25;4.88;;;;;;;19.61;46.97;100047.75;31092709;28;125659;-66
2024/01/19 10:43:31;;;;;;;17.03;5.80;;;;;;;21.21;38.05;100048.38;31123032;28;97456;-66
2024/01/19 10:58:35;;;;;;;11.00;5.20;;;;;;;22.62;32.70;100040.16;31583783;28;96657;-67
2024/01/19 11:13:40;;;;;;;13.07;4.97;;;;;;;24.74;26.38;100031.66;31198689;28;97062;-68
2024/01/19 11:29:08;;;;;;;10.67;4.50;;;;;;;26.96;20.68;100023.91;31318839;28;97133;-66
2024/01/19 11:44:12;;;;;;;8.52;4.47;;;;;;;25.91;18.14;100040.16;31598394;28;96725;-66
2024/01/19 11:59:12;;;;;;;11.40;4.33;;;;;;;26.52;17.44;100052.00;31547224;28;97491;-66
2024/01/19 12:14:13;;;;;;;7.60;4.07;;;;;;;26.70;17.36;100050.56;31617452;28;35484;-62
2024/01/19 12:29:31;;;;;;;10.18;4.32;;;;;;;17.13;23.57;100052.41;31615212;28;20389;-63
2024/01/19 12:44:31;;;;;;;7.40;3.17;;;;;;;16.79;23.37;100070.56;31615085;28;20128;-63
2024/01/19 12:59:31;;;;;;;8.20;2.38;;;;;;;10.36;29.93;100075.66;31613207;28;20485;-63
2024/01/19 13:14:33;;;;;;;7.25;3.05;;;;;;;19.03;23.00;100078.16;31632631;28;40951;-65
2024/01/19 13:29:34;;;;;;;;;;;;;;;21.45;20.27;100103.25;31633265;28;20481;-63
2024/01/19 13:44:34;;;;;;;7.05;3.08;;;;;;;21.67;20.10;100131.56;31631533;28;20025;-67
2024/01/19 13:59:35;;;;;;;5.77;2.37;;;;;;;18.77;22.05;100159.19;31627845;28;42726;-65
2024/01/19 14:14:35;;;;;;;7.80;3.20;;;;;;;16.53;24.25;100174.50;31626947;28;41640;-65
2024/01/19 14:29:37;;;;;;;6.93;3.03;;;;;;;14.13;26.96;100204.00;31625566;28;43159;-65
2024/01/19 14:44:38;;;;;;;8.07;3.20;;;;;;;9.70;32.30;100214.06;31624593;28;20401;-67
2024/01/19 14:59:38;;;;;;;8.35;3.78;;;;;;;6.29;36.70;100250.34;31624559;28;20032;-65
2024/01/19 15:14:38;;;;;;;8.02;4.25;;;;;;;2.89;42.53;100303.34;31621313;28;41991;-67
2024/01/19 15:29:40;;;;;;;6.80;3.67;;;;;;;1.17;45.50;100321.03;31619910;28;42809;-66
2024/01/19 15:44:44;;;;;;;12.27;4.93;;;;;;;0.20;48.43;100345.06;31621167;28;20551;-64
2024/01/19 15:59:45;;;;;;;17.30;4.50;;;;;;;0.01;49.93;100366.34;31619850;28;20111;-66
2024/01/19 16:14:45;;;;;;;14.05;4.30;;;;;;;-0.18;51.03;100393.69;31617639;28;20389;-64
2024/01/19 16:29:45;;;;;;;12.02;6.03;;;;;;;-0.55;52.22;100409.06;31615087;28;42968;-66
2024/01/19 16:44:46;;;;;;;12.68;5.15;;;;;;;-1.10;53.47;100419.25;31611080;28;41766;-64
2024/01/19 16:59:47;;;;;;;16.98;6.50;;;;;;;-1.17;55.21;100440.63;31611894;28;20144;-66
2024/01/19 17:14:47;;;;;;;19.20;6.68;;;;;;;-1.19;55.67;100459.00;31612344;28;20032;-63
2024/01/19 17:29:48;;;;;;;9.93;5.45;;;;;;;-1.16;56.64;100479.75;31607347;28;43121;-64
2024/01/19 17:44:48;;;;;;;10.07;6.03;;;;;;;-1.09;57.15;100496.78;31607721;28;20055;-63
2024/01/19 17:59:49;;;;;;;16.00;5.75;;;;;;;-1.00;57.77;100523.34;31625807;28;20242;-64
2024/01/19 18:14:51;;;;;;;14.98;6.18;;;;;;;-0.91;58.03;100525.44;31629322;28;41664;-63
2024/01/19 18:29:51;;;;;;;20.10;7.53;;;;;;;-1.09;58.59;100537.78;31626314;28;20039;-63
2024/01/19 18:44:51;;;;;;;15.65;6.05;;;;;;;-1.45;59.63;100562.41;31625892;28;20053;-63
2024/01/19 18:59:53;;;;;;;12.20;5.18;;;;;;;-1.76;59.78;100575.34;31624470;28;41750;-64
2024/01/19 19:14:53;;;;;;;10.88;5.07;;;;;;;-2.14;60.44;100598.25;31624594;28;20033;-63
2024/01/19 19:29:54;;;;;;;13.88;5.97;;;;;;;-2.48;60.65;100603.41;31622042;28;42967;-63
2024/01/19 19:44:55;;;;;;;14.52;7.68;;;;;;;-2.76;61.20;100616.94;31619852;28;41336;-65
2024/01/19 19:59:56;;;;;;;20.20;8.02;;;;;;;-2.78;62.01;100632.66;31621272;28;20030;-67
2024/01/19 20:14:56;;;;;;;11.95;6.35;;;;;;;-2.61;62.47;100647.53;31617614;28;42885;-64
2024/01/19 20:29:56;;;;;;;18.67;8.52;;;;;;;-2.58;62.83;100659.56;31617507;28;20040;-63
2024/01/19 20:44:57;;;;;;;21.55;9.45;;;;;;;-2.32;62.93;100667.88;31615142;28;28751;-63
2024/01/19 20:59:57;;;;;;;18.98;8.75;;;;;;;-2.06;62.76;100669.19;31614491;28;41834;-64
2024/01/19 21:14:58;;;;;;;26.58;8.77;;;;;;;-2.03;63.03;100665.59;31612717;28;31090;-63
2024/01/19 21:29:59;;;;;;;19.38;8.27;;;;;;;-1.94;63.21;100688.59;31625354;28;20044;-65
2024/01/19 21:45:00;;;;;;;11.40;7.65;;;;;;;-1.89;62.99;100689.22;31633939;28;20041;-64
2024/01/19 22:00:00;;;;;;;17.38;7.38;;;;;;;-1.84;63.29;100696.84;31632367;28;41770;-64
2024/01/19 22:15:00;;;;;;;18.63;6.72;;;;;;;-1.67;63.22;100715.09;31630518;28;20222;-64
2024/01/19 22:30:01;;;;;;;13.85;6.22;;;;;;;-1.65;63.54;100728.06;31629994;28;20115;-62
2024/01/19 22:45:01;;;;;;;9.57;5.40;;;;;;;-2.00;63.98;100739.38;31628517;28;40951;-64
2024/01/19 23:00:12;;;;;;;7.78;3.33;;;;;;;-2.23;63.83;100745.72;31628931;28;20495;-64
2024/01/19 23:15:16;;;;;;;8.88;3.72;;;;;;;-2.32;64.99;100772.25;31627656;28;20082;-63
2024/01/19 23:30:16;;;;;;;10.80;4.55;;;;;;;-2.40;64.75;100762.19;31626713;28;20095;-63
2024/01/19 23:45:17;;;;;;;8.65;3.75;;;;;;;-2.51;65.40;100754.88;31624908;28;20119;-64
